Time;durP1;ratioP1;P1;durP2;ratioP2;P2;SDS_P1;SDS_P2;PMS_P1;PMS_P2;Temp;Humidity;BMP_temperature;BMP_pressure;BME280_temperature;BME280_humidity;BME280_pressure;Samples;Min_cycle;Max_cycle;Signal;HPM_P1;HPM_P2
2022/10/09 00:01:12;;;;;;;21.73;3.80;;;10.10;99.90;;;;;;4068954;29;20204;-90
2022/10/09 00:03:16;;;;;;;16.67;3.90;;;10.20;99.90;;;;;;4069103;29;20727;-94
2022/10/09 00:05:16;;;;;;;21.65;5.00;;;10.20;99.90;;;;;;4068878;29;20176;-92
2022/10/09 00:07:17;;;;;;;14.23;3.90;;;10.10;99.90;;;;;;4084828;29;20581;-90
2022/10/09 00:09:18;;;;;;;11.00;3.63;;;10.00;99.90;;;;;;4052991;29;20177;-90
2022/10/09 00:11:22;;;;;;;10.55;4.00;;;10.00;99.90;;;;;;4084057;29;20640;-92
2022/10/09 00:13:23;;;;;;;22.65;3.97;;;10.10;99.90;;;;;;4053229;29;20241;-94
2022/10/09 00:15:24;;;;;;;17.33;4.30;;;10.00;99.90;;;;;;4084605;29;20270;-89
2022/10/09 00:17:25;;;;;;;14.90;4.27;;;9.90;99.90;;;;;;4068502;29;20176;-90
2022/10/09 00:19:25;;;;;;;16.15;4.15;;;10.00;99.90;;;;;;4069052;29;20180;-92
2022/10/09 00:21:29;;;;;;;15.17;4.20;;;10.00;99.90;;;;;;4068929;29;20191;-90
2022/10/09 00:23:30;;;;;;;16.20;4.50;;;10.10;99.90;;;;;;4053127;29;20268;-89
2022/10/09 00:25:32;;;;;;;14.33;4.50;;;10.00;99.90;;;;;;4068942;29;20523;-90
2022/10/09 00:27:32;;;;;;;15.43;4.80;;;10.00;99.90;;;;;;4068677;29;20657;-91
2022/10/09 00:29:33;;;;;;;13.98;4.50;;;10.00;99.90;;;;;;4084346;29;20190;-91
2022/10/09 00:31:34;;;;;;;13.90;4.43;;;9.90;99.90;;;;;;4052866;29;20181;-89
2022/10/09 00:33:36;;;;;;;20.80;4.78;;;9.90;99.90;;;;;;4068838;29;20232;-92
2022/10/09 00:35:38;;;;;;;16.60;4.93;;;9.90;99.90;;;;;;4068564;29;20187;-92
2022/10/09 00:37:39;;;;;;;21.15;4.85;;;9.90;99.90;;;;;;4053100;29;20299;-92
2022/10/09 00:39:40;;;;;;;14.00;4.87;;;9.90;99.90;;;;;;4084286;29;20175;-90
2022/10/09 00:41:40;;;;;;;10.00;4.40;;;9.90;99.90;;;;;;4084281;29;20251;-90
2022/10/09 00:43:46;;;;;;;16.37;4.93;;;9.90;99.90;;;;;;4053214;29;20259;-90
2022/10/09 00:45:52;;;;;;;18.40;5.27;;;9.80;99.90;;;;;;4053147;29;20177;-93
2022/10/09 00:48:01;;;;;;;13.98;4.40;;;9.90;99.90;;;;;;4053175;29;20185;-91
2022/10/09 00:50:24;;;;;;;23.08;4.90;;;9.90;99.90;;;;;;4052584;29;20263;-89
2022/10/09 00:52:25;;;;;;;16.10;5.07;;;9.90;99.90;;;;;;4068538;29;20203;-89
2022/10/09 00:54:29;;;;;;;11.07;3.97;;;9.90;99.90;;;;;;4052735;29;20653;-92
2022/10/09 00:56:30;;;;;;;16.27;4.40;;;9.80;99.90;;;;;;4052745;29;20180;-90
2022/10/09 00:58:30;;;;;;;16.17;4.43;;;9.80;99.90;;;;;;4084032;29;20251;-90
2022/10/09 01:00:31;;;;;;;18.07;5.30;;;9.80;99.90;;;;;;4052781;29;20197;-90
2022/10/09 01:02:32;;;;;;;15.80;5.40;;;9.80;99.90;;;;;;4083957;29;20187;-90
2022/10/09 01:04:33;;;;;;;12.13;4.83;;;9.80;99.90;;;;;;4052810;29;20655;-92
2022/10/09 01:07:09;;;;;;;13.87;4.90;;;9.70;99.90;;;;;;4052743;29;20196;-90
2022/10/09 01:09:38;;;;;;;16.17;4.63;;;9.70;99.90;;;;;;4052431;29;20177;-90
2022/10/09 01:12:09;;;;;;;14.27;4.50;;;9.70;99.90;;;;;;4067924;29;20223;-91
2022/10/09 01:14:43;;;;;;;15.77;5.07;;;9.70;99.90;;;;;;4084053;29;20201;-90
2022/10/09 01:16:55;;;;;;;14.83;4.23;;;9.60;99.90;;;;;;4062929;29;20184;-90
2022/10/09 01:19:11;;;;;;;14.10;4.37;;;9.60;99.90;;;;;;4068162;29;20759;-94
2022/10/09 01:21:18;;;;;;;10.73;4.20;;;9.60;99.90;;;;;;4083788;29;20238;-93
2022/10/09 01:23:31;;;;;;;7.70;4.13;;;9.60;99.90;;;;;;4068278;29;20179;-92
2022/10/09 01:25:43;;;;;;;17.63;4.60;;;9.60;99.90;;;;;;4068315;29;20186;-89
2022/10/09 01:27:43;;;;;;;12.13;4.00;;;9.60;99.90;;;;;;4068207;29;20283;-92
2022/10/09 01:29:48;;;;;;;16.03;4.50;;;9.60;99.90;;;;;;4084002;29;20176;-89
2022/10/09 01:31:50;;;;;;;14.03;4.30;;;9.60;99.90;;;;;;4052673;29;20177;-91
2022/10/09 01:33:51;;;;;;;15.97;4.67;;;9.60;99.90;;;;;;4052698;29;20180;-93
2022/10/09 01:35:52;;;;;;;15.40;4.90;;;9.70;99.90;;;;;;4083801;29;20188;-90
2022/10/09 01:37:55;;;;;;;15.73;4.10;;;9.60;99.90;;;;;;4052480;29;20208;-91
2022/10/09 01:39:57;;;;;;;17.80;3.87;;;9.60;99.90;;;;;;4052473;29;20209;-91
2022/10/09 01:41:58;;;;;;;13.90;3.90;;;9.70;99.90;;;;;;4052620;29;20177;-93
2022/10/09 01:43:58;;;;;;;13.67;4.43;;;9.70;99.90;;;;;;4054994;29;20666;-90
2022/10/09 01:46:27;;;;;;;16.93;4.07;;;9.70;99.90;;;;;;4071087;29;20179;-90
2022/10/09 01:48:28;;;;;;;15.63;3.87;;;9.70;99.90;;;;;;4071182;29;20263;-93
2022/10/09 01:50:33;;;;;;;14.73;3.93;;;9.70;99.90;;;;;;4086520;29;20206;-92
2022/10/09 01:52:52;;;;;;;14.27;4.00;;;9.70;99.90;;;;;;4055277;29;20181;-92
2022/10/09 01:55:01;;;;;;;11.67;3.73;;;9.70;99.90;;;;;;4055412;29;20272;-92
2022/10/09 01:57:06;;;;;;;16.40;4.00;;;9.70;99.90;;;;;;4070872;29;20172;-92
2022/10/09 01:59:12;;;;;;;12.40;3.77;;;9.60;99.90;;;;;;4055339;29;20255;-93
2022/10/09 02:01:16;;;;;;;17.93;4.10;;;9.60;99.90;;;;;;4055227;29;20197;-89
2022/10/09 02:03:18;;;;;;;14.37;4.10;;;9.50;99.90;;;;;;4055074;29;20185;-91
2022/10/09 02:05:25;;;;;;;9.23;3.97;;;9.50;99.90;;;;;;4055147;29;20183;-91
2022/10/09 02:07:27;;;;;;;16.83;4.90;;;9.50;99.90;;;;;;4055200;29;20181;-90
2022/10/09 02:09:29;;;;;;;14.43;4.57;;;9.50;99.90;;;;;;4070538;29;20177;-91
2022/10/09 02:11:32;;;;;;;9.37;3.57;;;9.40;99.90;;;;;;4070529;29;20227;-89
2022/10/09 02:13:34;;;;;;;9.77;4.10;;;9.40;99.90;;;;;;4055037;29;20173;-93
2022/10/09 02:15:47;;;;;;;16.87;4.57;;;9.40;99.90;;;;;;4054838;29;20181;-89
2022/10/09 02:17:51;;;;;;;13.53;3.97;;;9.40;99.90;;;;;;4054816;29;20209;-93
2022/10/09 02:20:23;;;;;;;14.50;4.47;;;9.40;99.90;;;;;;4055068;29;20208;-93
2022/10/09 02:22:28;;;;;;;18.20;4.50;;;9.40;99.90;;;;;;4070074;29;20199;-90
2022/10/09 02:24:29;;;;;;;16.93;4.40;;;9.40;99.90;;;;;;4054780;29;20180;-94
2022/10/09 02:26:31;;;;;;;14.60;5.00;;;9.40;99.90;;;;;;4086082;29;20274;-91
2022/10/09 02:28:32;;;;;;;14.33;4.30;;;9.40;99.90;;;;;;4054637;29;20646;-93
2022/10/09 02:30:50;;;;;;;18.23;4.90;;;9.40;99.90;;;;;;4086003;29;20227;-91
2022/10/09 02:32:52;;;;;;;15.27;5.23;;;9.40;99.90;;;;;;4054707;29;20221;-91
2022/10/09 02:34:52;;;;;;;16.80;4.47;;;9.40;99.90;;;;;;4054714;29;20169;-91
2022/10/09 02:36:53;;;;;;;15.30;5.03;;;9.30;99.90;;;;;;4085743;29;20254;-92
2022/10/09 02:38:55;;;;;;;14.03;3.93;;;9.20;99.90;;;;;;4054528;29;20223;-90
2022/10/09 02:40:59;;;;;;;15.30;4.50;;;9.20;99.90;;;;;;4054452;29;20193;-90
2022/10/09 02:43:00;;;;;;;17.03;4.00;;;9.10;99.90;;;;;;4054679;29;20264;-90
2022/10/09 02:45:01;;;;;;;13.17;4.07;;;9.00;99.90;;;;;;4086059;29;20178;-92
2022/10/09 02:47:02;;;;;;;16.87;3.87;;;9.00;99.90;;;;;;4054739;29;20169;-93
2022/10/09 02:49:04;;;;;;;15.37;3.80;;;9.10;99.90;;;;;;4054635;29;20177;-92
2022/10/09 02:51:05;;;;;;;17.53;3.50;;;9.20;99.90;;;;;;4054520;29;20224;-93
2022/10/09 02:53:06;;;;;;;13.97;3.73;;;9.20;99.90;;;;;;4085757;29;20187;-91
2022/10/09 02:55:07;;;;;;;24.10;4.10;;;9.20;99.90;;;;;;4054150;29;20181;-92
2022/10/09 02:57:07;;;;;;;20.87;4.17;;;9.20;99.90;;;;;;4069676;29;20319;-92
2022/10/09 02:59:08;;;;;;;17.27;3.97;;;9.20;99.90;;;;;;4054325;29;20676;-92
2022/10/09 03:01:09;;;;;;;13.70;3.73;;;9.20;99.90;;;;;;4085567;29;20191;-90
2022/10/09 03:03:10;;;;;;;20.70;3.60;;;9.20;99.90;;;;;;4069803;29;20179;-92
2022/10/09 03:05:11;;;;;;;13.50;3.40;;;9.30;99.90;;;;;;4054460;29;20216;-89
2022/10/09 03:07:12;;;;;;;13.33;3.53;;;9.30;99.90;;;;;;4069793;29;20204;-92
2022/10/09 03:09:12;;;;;;;11.03;3.63;;;9.30;99.90;;;;;;4054120;29;20229;-90
2022/10/09 03:11:15;;;;;;;11.73;3.93;;;9.50;99.90;;;;;;4085324;29;20258;-92
2022/10/09 03:13:15;;;;;;;13.53;3.73;;;9.40;99.90;;;;;;4054344;29;20647;-92
2022/10/09 03:15:16;;;;;;;18.43;4.13;;;9.50;99.90;;;;;;4085489;29;20198;-92
2022/10/09 03:17:17;;;;;;;15.80;4.80;;;9.20;99.90;;;;;;4054084;29;20179;-92
2022/10/09 03:19:18;;;;;;;16.23;3.67;;;9.30;99.90;;;;;;4085255;29;20211;-89
2022/10/09 03:21:25;;;;;;;11.10;3.57;;;9.00;99.90;;;;;;4053709;29;20201;-91
2022/10/09 03:23:26;;;;;;;16.50;4.40;;;9.00;99.90;;;;;;4053808;29;20177;-90
2022/10/09 03:25:26;;;;;;;13.57;4.07;;;9.20;99.90;;;;;;4069724;29;20177;-89
2022/10/09 03:27:29;;;;;;;17.00;5.30;;;9.70;99.90;;;;;;4053869;29;20847;-92
2022/10/09 03:29:30;;;;;;;14.20;4.83;;;9.70;99.90;;;;;;4069223;29;20180;-90
2022/10/09 03:31:30;;;;;;;17.23;4.60;;;9.70;99.90;;;;;;4084981;29;20552;-94
2022/10/09 03:33:33;;;;;;;20.93;5.10;;;9.60;99.90;;;;;;4054055;29;20184;-92
2022/10/09 03:35:33;;;;;;;11.47;5.00;;;9.60;99.90;;;;;;4054196;29;20296;-90
2022/10/09 03:37:34;;;;;;;11.80;4.53;;;9.60;99.90;;;;;;4085307;29;20206;-89
2022/10/09 03:39:35;;;;;;;15.57;5.47;;;9.60;99.90;;;;;;4053721;29;20259;-90
2022/10/09 03:41:35;;;;;;;13.90;4.50;;;9.30;99.90;;;;;;4085324;29;20176;-91
2022/10/09 03:43:36;;;;;;;13.77;4.90;;;9.40;99.90;;;;;;4053798;29;20708;-89
2022/10/09 03:45:40;;;;;;;14.23;3.73;;;9.50;99.90;;;;;;4084765;29;20183;-91
2022/10/09 03:47:41;;;;;;;15.10;4.17;;;9.20;99.90;;;;;;4053532;29;20259;-91
2022/10/09 03:49:42;;;;;;;13.10;5.43;;;9.10;99.90;;;;;;4084742;29;20219;-93
2022/10/09 03:51:43;;;;;;;17.97;5.30;;;9.10;99.90;;;;;;4053770;29;20203;-90
2022/10/09 03:53:43;;;;;;;16.47;5.57;;;9.30;99.90;;;;;;4084906;29;20207;-90
2022/10/09 03:55:44;;;;;;;14.37;4.50;;;9.40;99.90;;;;;;4053624;29;20184;-91
2022/10/09 03:57:45;;;;;;;14.97;5.00;;;9.80;99.90;;;;;;4084691;29;20265;-91
2022/10/09 03:59:45;;;;;;;19.77;5.47;;;10.10;99.90;;;;;;4053487;29;20173;-92
2022/10/09 04:01:46;;;;;;;19.03;6.33;;;10.20;99.90;;;;;;4084658;29;20184;-91
2022/10/09 04:03:47;;;;;;;19.70;6.07;;;10.30;99.90;;;;;;4053320;29;20582;-92
2022/10/09 04:05:48;;;;;;;14.23;5.57;;;10.30;99.90;;;;;;4084488;29;20203;-90
2022/10/09 04:07:49;;;;;;;23.63;6.23;;;10.10;99.90;;;;;;4069063;29;20587;-91
2022/10/09 04:09:50;;;;;;;21.63;5.57;;;10.00;99.90;;;;;;4053265;29;20204;-91
2022/10/09 04:11:51;;;;;;;23.73;5.13;;;9.90;99.90;;;;;;4069022;29;20649;-90
2022/10/09 04:13:52;;;;;;;17.03;6.03;;;9.30;99.90;;;;;;4069127;29;20177;-92
2022/10/09 04:15:53;;;;;;;15.47;4.83;;;9.10;99.90;;;;;;4053053;29;20196;-89
2022/10/09 04:17:54;;;;;;;17.77;4.40;;;9.00;99.90;;;;;;4068928;29;20216;-93
2022/10/09 04:19:55;;;;;;;19.70;5.00;;;8.90;99.90;;;;;;4053093;29;20295;-92
2022/10/09 04:21:55;;;;;;;18.40;5.00;;;8.90;99.90;;;;;;4084279;29;20183;-92
2022/10/09 04:23:56;;;;;;;15.40;4.13;;;8.80;99.90;;;;;;4053178;29;20176;-91
2022/10/09 04:25:58;;;;;;;14.67;4.50;;;8.70;99.90;;;;;;4068705;29;20180;-91
2022/10/09 04:27:59;;;;;;;20.27;4.23;;;8.60;99.90;;;;;;4068765;29;20169;-93
2022/10/09 04:30:00;;;;;;;13.97;3.73;;;8.70;99.90;;;;;;4084198;29;20601;-90
2022/10/09 04:32:01;;;;;;;18.67;4.00;;;8.60;99.90;;;;;;4052945;29;20176;-90
2022/10/09 04:34:02;;;;;;;19.13;3.80;;;8.60;99.90;;;;;;4084240;29;20183;-90
2022/10/09 04:36:03;;;;;;;16.60;3.50;;;8.60;99.90;;;;;;4053003;29;20220;-94
2022/10/09 04:38:04;;;;;;;16.20;3.30;;;8.70;99.90;;;;;;4052992;29;20309;-90
2022/10/09 04:40:05;;;;;;;9.87;3.10;;;8.70;99.90;;;;;;4084592;29;20195;-91
2022/10/09 04:42:06;;;;;;;12.27;3.10;;;8.70;99.90;;;;;;4052828;29;20244;-92
2022/10/09 04:44:06;;;;;;;10.80;2.87;;;8.70;99.90;;;;;;4084519;29;20252;-91
2022/10/09 04:46:10;;;;;;;19.50;3.63;;;8.70;99.90;;;;;;4053279;29;20240;-90
2022/10/09 04:48:11;;;;;;;11.27;3.30;;;8.70;99.90;;;;;;4053306;29;20264;-92
2022/10/09 04:50:11;;;;;;;11.13;3.50;;;8.70;99.90;;;;;;4084266;29;20221;-90
2022/10/09 04:52:12;;;;;;;14.30;3.17;;;8.70;99.90;;;;;;4052869;29;20583;-93
2022/10/09 04:54:13;;;;;;;11.93;3.50;;;8.70;99.90;;;;;;4084485;29;20203;-92
2022/10/09 04:56:16;;;;;;;16.23;3.50;;;8.70;99.90;;;;;;4052836;29;20180;-91
2022/10/09 04:58:17;;;;;;;16.13;3.50;;;8.70;99.90;;;;;;4052821;29;20220;-93
2022/10/09 05:00:18;;;;;;;9.40;2.90;;;8.80;99.90;;;;;;4084099;29;20196;-89
2022/10/09 05:02:18;;;;;;;14.00;3.53;;;8.80;99.90;;;;;;4052587;29;20181;-89
2022/10/09 05:04:19;;;;;;;15.60;3.67;;;8.80;99.90;;;;;;4068391;29;20572;-90
2022/10/09 05:06:21;;;;;;;17.77;3.60;;;8.70;99.90;;;;;;4052709;29;20296;-93
2022/10/09 05:08:22;;;;;;;14.03;3.93;;;8.70;99.90;;;;;;4084117;29;20178;-92
2022/10/09 05:10:22;;;;;;;13.93;3.40;;;8.70;99.90;;;;;;4068580;29;20248;-92
2022/10/09 05:12:23;;;;;;;11.80;3.17;;;8.80;99.90;;;;;;4084039;29;20179;-90
2022/10/09 05:14:24;;;;;;;8.30;3.27;;;8.90;99.90;;;;;;4052845;29;20181;-89
2022/10/09 05:16:30;;;;;;;13.97;3.50;;;8.90;99.90;;;;;;4084067;29;20226;-91
2022/10/09 05:18:31;;;;;;;14.47;3.93;;;9.00;99.90;;;;;;4055769;29;20221;-90
2022/10/09 05:20:31;;;;;;;14.30;3.53;;;8.90;99.90;;;;;;4071416;29;20267;-90
2022/10/09 05:22:32;;;;;;;14.23;3.67;;;8.90;99.90;;;;;;4055696;29;20278;-90
2022/10/09 05:24:33;;;;;;;17.03;4.10;;;8.90;99.90;;;;;;4071357;29;20246;-91
2022/10/09 05:26:33;;;;;;;15.03;3.80;;;8.90;99.90;;;;;;4055677;29;20192;-89
2022/10/09 05:28:35;;;;;;;15.97;3.70;;;8.90;99.90;;;;;;4087088;29;20607;-92
2022/10/09 05:30:40;;;;;;;17.07;3.70;;;8.80;99.90;;;;;;4055621;29;20628;-91
2022/10/09 05:32:40;;;;;;;11.60;3.30;;;8.90;99.90;;;;;;4055657;29;20176;-90
2022/10/09 05:34:41;;;;;;;17.37;3.43;;;8.90;99.90;;;;;;4087015;29;20172;-91
2022/10/09 05:36:42;;;;;;;14.20;3.80;;;8.90;99.90;;;;;;4055212;29;20180;-90
2022/10/09 05:38:43;;;;;;;21.57;3.77;;;8.90;99.90;;;;;;4086624;29;20223;-90
2022/10/09 05:41:00;;;;;;;18.30;3.37;;;8.90;99.90;;;;;;4055503;29;20189;-91
2022/10/09 05:43:01;;;;;;;15.83;3.87;;;8.90;99.90;;;;;;4055517;29;20184;-91
2022/10/09 05:45:02;;;;;;;20.57;3.97;;;8.90;99.90;;;;;;4070925;29;20740;-91
2022/10/09 05:47:03;;;;;;;10.47;3.70;;;9.00;99.90;;;;;;4070980;29;20264;-90
2022/10/09 05:49:05;;;;;;;16.77;3.70;;;8.90;99.90;;;;;;4055231;29;20271;-91
2022/10/09 05:51:12;;;;;;;11.87;3.50;;;8.90;99.90;;;;;;4071035;29;20196;-90
2022/10/09 05:53:13;;;;;;;14.60;3.60;;;8.90;99.90;;;;;;4055368;29;20184;-90
2022/10/09 05:55:13;;;;;;;10.97;3.33;;;8.90;99.90;;;;;;4086804;29;20184;-90
2022/10/09 05:57:14;;;;;;;14.87;3.70;;;8.90;99.90;;;;;;4055373;29;20198;-90
2022/10/09 05:59:20;;;;;;;20.50;3.80;;;9.00;99.90;;;;;;4070908;29;20223;-90
2022/10/09 06:01:23;;;;;;;13.53;3.90;;;9.00;99.90;;;;;;4055083;29;20201;-90
2022/10/09 06:03:23;;;;;;;14.43;3.87;;;9.00;99.90;;;;;;4055382;29;20243;-90
2022/10/09 06:05:24;;;;;;;17.67;4.10;;;9.00;99.90;;;;;;4086478;29;20210;-90
2022/10/09 06:07:25;;;;;;;12.13;3.50;;;9.00;99.90;;;;;;4055075;29;20272;-90
2022/10/09 06:09:26;;;;;;;16.57;3.37;;;9.00;99.90;;;;;;4086279;29;20180;-92
2022/10/09 06:11:30;;;;;;;12.37;3.20;;;9.10;99.90;;;;;;4054938;29;20304;-90
2022/10/09 06:13:31;;;;;;;12.00;3.40;;;9.10;99.90;;;;;;4055257;29;20546;-91
2022/10/09 06:15:31;;;;;;;9.50;3.33;;;9.10;99.90;;;;;;4086238;29;20175;-90
2022/10/09 06:17:33;;;;;;;18.20;3.60;;;9.20;99.90;;;;;;4054979;29;20177;-91
2022/10/09 06:19:33;;;;;;;17.87;3.67;;;9.20;99.90;;;;;;4054689;29;20169;-91
2022/10/09 06:21:34;;;;;;;11.60;3.17;;;9.30;99.90;;;;;;4086230;29;20260;-88
2022/10/09 06:23:35;;;;;;;12.27;3.20;;;9.50;99.90;;;;;;4065929;29;20261;-92
2022/10/09 06:25:36;;;;;;;12.40;3.47;;;9.90;99.90;;;;;;4064430;29;20259;-90
2022/10/09 06:27:36;;;;;;;11.47;2.77;;;10.60;99.90;;;;;;4070355;29;20185;-90
2022/10/09 06:29:37;;;;;;;7.40;2.40;;;11.20;99.90;;;;;;4085404;29;20180;-91
2022/10/09 06:31:38;;;;;;;9.65;2.58;;;11.90;99.90;;;;;;4054696;29;20653;-92
2022/10/09 06:33:40;;;;;;;12.88;3.05;;;12.60;99.90;;;;;;4086205;29;20179;-90
2022/10/09 06:35:41;;;;;;;10.30;2.30;;;13.30;99.90;;;;;;4054525;29;20188;-91
2022/10/09 06:37:42;;;;;;;12.93;2.40;;;13.90;99.90;;;;;;4054617;29;20607;-91
2022/10/09 06:39:43;;;;;;;6.55;2.30;;;14.50;99.90;;;;;;4070269;29;20180;-90
2022/10/09 06:41:44;;;;;;;8.85;2.15;;;14.70;99.90;;;;;;4085749;29;20616;-90
2022/10/09 06:43:59;;;;;;;11.00;2.40;;;15.10;99.90;;;;;;4056357;29;20209;-91
2022/10/09 06:46:02;;;;;;;13.75;2.35;;;15.40;99.90;;;;;;4054708;29;20177;-90
2022/10/09 06:48:03;;;;;;;7.68;2.15;;;15.90;99.90;;;;;;4054603;29;20169;-90
2022/10/09 06:50:04;;;;;;;12.85;2.30;;;16.40;99.90;;;;;;4085753;29;20214;-90
2022/10/09 06:52:05;;;;;;;12.55;2.30;;;16.70;99.90;;;;;;4054409;29;20534;-92
2022/10/09 06:54:11;;;;;;;8.32;2.22;;;16.60;99.90;;;;;;4085735;29;20235;-92
2022/10/09 06:56:12;;;;;;;7.70;2.67;;;16.40;99.90;;;;;;4054263;29;20201;-91
2022/10/09 06:58:13;;;;;;;8.57;2.25;;;16.00;99.90;;;;;;4054713;29;20209;-90
2022/10/09 07:00:13;;;;;;;10.48;2.13;;;15.80;99.90;;;;;;4070020;29;20236;-91
2022/10/09 07:02:14;;;;;;;11.77;2.22;;;15.50;99.90;;;;;;4086076;29;20172;-90
2022/10/09 07:04:17;;;;;;;6.82;2.10;;;15.50;99.90;;;;;;4054421;29;20180;-91
2022/10/09 07:06:21;;;;;;;4.57;2.10;;;15.30;99.90;;;;;;4069988;29;20184;-90
2022/10/09 07:08:22;;;;;;;9.15;2.25;;;15.50;99.90;;;;;;4054379;29;20180;-90
2022/10/09 07:10:23;;;;;;;13.52;2.50;;;15.60;99.90;;;;;;4085812;29;20196;-93
2022/10/09 07:12:25;;;;;;;11.57;2.40;;;15.50;99.90;;;;;;4070019;29;20263;-90
2022/10/09 07:14:27;;;;;;;12.10;2.35;;;15.10;99.90;;;;;;4069888;29;20165;-91
2022/10/09 07:16:31;;;;;;;6.53;2.45;;;14.60;99.90;;;;;;4069739;29;20177;-92
2022/10/09 07:18:33;;;;;;;8.63;2.35;;;14.40;99.90;;;;;;4069763;29;20223;-92
2022/10/09 07:20:35;;;;;;;9.55;2.30;;;14.10;99.90;;;;;;4069644;29;20193;-90
2022/10/09 07:22:36;;;;;;;8.25;2.33;;;13.80;99.90;;;;;;4069764;29;20180;-91
2022/10/09 07:24:36;;;;;;;10.60;2.70;;;13.50;99.90;;;;;;4085321;29;20186;-90
2022/10/09 07:26:40;;;;;;;11.18;2.53;;;13.30;99.90;;;;;;4069572;29;20519;-90
2022/10/09 07:28:42;;;;;;;7.13;2.00;;;13.20;99.90;;;;;;4054058;29;20267;-90
2022/10/09 07:30:42;;;;;;;16.00;2.60;;;13.00;99.90;;;;;;4053863;29;20201;-92
2022/10/09 07:32:43;;;;;;;10.73;2.45;;;12.90;99.90;;;;;;4069507;29;20609;-91
2022/10/09 07:34:44;;;;;;;6.63;2.28;;;12.80;99.90;;;;;;4085256;29;20183;-90
2022/10/09 07:36:44;;;;;;;7.28;2.08;;;12.70;99.90;;;;;;4053818;29;20200;-91
2022/10/09 07:38:50;;;;;;;12.50;2.60;;;12.80;99.90;;;;;;4085055;29;20225;-90
2022/10/09 07:40:52;;;;;;;10.55;2.50;;;12.80;99.90;;;;;;4053606;29;20193;-91
2022/10/09 07:42:53;;;;;;;7.93;2.63;;;12.90;99.90;;;;;;4053710;29;20594;-93
2022/10/09 07:44:54;;;;;;;9.32;2.13;;;13.00;99.90;;;;;;4069090;29;20243;-91
2022/10/09 07:46:54;;;;;;;9.27;2.25;;;13.00;99.90;;;;;;4069377;29;20188;-90
2022/10/09 07:48:55;;;;;;;8.68;2.53;;;12.80;99.90;;;;;;4053754;29;20181;-90
2022/10/09 07:50:56;;;;;;;7.32;2.03;;;12.70;99.90;;;;;;4084828;29;20191;-91
2022/10/09 07:52:57;;;;;;;9.05;2.33;;;12.70;99.90;;;;;;4069468;29;20573;-90
2022/10/09 07:54:57;;;;;;;9.55;2.47;;;13.20;99.90;;;;;;4084846;29;20184;-91
2022/10/09 07:56:58;;;;;;;8.43;2.50;;;13.70;99.90;;;;;;4053371;29;20176;-91
2022/10/09 07:59:06;;;;;;;6.50;1.80;;;14.60;99.90;;;;;;4084423;29;20220;-91
2022/10/09 08:01:07;;;;;;;6.32;2.10;;;15.60;99.90;;;;;;4053404;29;20239;-91
2022/10/09 08:03:08;;;;;;;9.13;1.80;;;16.90;99.90;;;;;;4068981;29;20546;-91
2022/10/09 08:05:09;;;;;;;6.05;1.77;;;18.20;99.90;;;;;;4069175;29;20324;-90
2022/10/09 08:07:10;;;;;;;9.95;2.08;;;19.10;99.90;;;;;;4068968;29;20192;-89
2022/10/09 08:09:10;;;;;;;8.23;2.03;;;19.90;99.90;;;;;;4069026;29;20191;-90
2022/10/09 08:11:13;;;;;;;6.07;1.88;;;20.50;99.90;;;;;;4053163;29;20197;-92
2022/10/09 08:13:14;;;;;;;7.38;2.00;;;20.90;99.90;;;;;;4068952;29;20168;-90
2022/10/09 08:15:15;;;;;;;8.43;2.40;;;21.40;99.90;;;;;;4084708;29;20175;-93
2022/10/09 08:17:15;;;;;;;6.82;2.47;;;21.50;99.90;;;;;;4053331;29;20212;-90
2022/10/09 08:19:16;;;;;;;10.30;2.15;;;22.10;99.90;;;;;;4084578;29;20297;-90
2022/10/09 08:21:18;;;;;;;7.60;2.33;;;22.70;99.90;;;;;;4053385;29;20197;-90
2022/10/09 08:23:18;;;;;;;12.75;2.03;;;23.20;99.90;;;;;;4053338;29;20173;-91
2022/10/09 08:25:19;;;;;;;10.02;2.20;;;23.30;99.90;;;;;;4084403;29;20180;-90
2022/10/09 08:27:20;;;;;;;5.45;2.20;;;23.40;99.90;;;;;;4053113;29;20192;-90
2022/10/09 08:29:20;;;;;;;8.68;2.10;;;23.40;99.90;;;;;;4084352;29;20182;-92
2022/10/09 08:31:22;;;;;;;8.15;1.95;;;23.40;99.90;;;;;;4053166;29;20200;-93
2022/10/09 08:33:24;;;;;;;6.90;1.98;;;23.40;99.90;;;;;;4053160;29;20184;-91
2022/10/09 08:35:25;;;;;;;7.97;1.88;;;23.40;99.90;;;;;;4068771;29;20290;-90
2022/10/09 08:37:26;;;;;;;5.40;1.80;;;23.70;99.90;;;;;;4068604;29;20180;-91
2022/10/09 08:39:29;;;;;;;8.65;2.38;;;24.00;99.90;;;;;;4068646;29;20245;-90
2022/10/09 08:41:52;;;;;;;10.48;2.33;;;23.70;99.90;;;;;;4084133;29;20171;-89
2022/10/09 08:44:32;;;;;;;6.00;1.77;;;23.80;99.90;;;;;;4068719;29;20176;-90
2022/10/09 08:47:00;;;;;;;5.97;1.73;;;23.80;99.90;;;;;;4067623;29;20200;-92
2022/10/09 08:49:03;;;;;;;9.80;1.83;;;23.40;99.90;;;;;;4052954;29;20620;-90
2022/10/09 08:51:08;;;;;;;6.68;2.00;;;23.30;99.90;;;;;;4052617;29;20229;-89
2022/10/09 08:53:41;;;;;;;8.55;2.30;;;23.20;99.90;;;;;;4052772;29;20180;-90
2022/10/09 08:55:48;;;;;;;7.65;2.10;;;23.20;99.90;;;;;;4066884;29;20195;-91
2022/10/09 08:57:52;;;;;;;6.70;1.75;;;23.30;99.90;;;;;;4052538;29;20215;-94
2022/10/09 08:59:53;;;;;;;7.50;1.92;;;22.30;99.90;;;;;;4052683;29;20212;-90
2022/10/09 09:02:06;;;;;;;9.05;1.70;;;22.30;99.90;;;;;;4084269;29;20175;-90
2022/10/09 09:04:47;;;;;;;7.03;1.98;;;21.70;99.90;;;;;;4068439;29;20183;-90
2022/10/09 09:07:07;;;;;;;9.75;1.70;;;21.90;99.90;;;;;;4068415;28;20183;-90
2022/10/09 09:09:22;;;;;;;7.72;1.60;;;22.30;99.90;;;;;;4053134;29;20183;-89
2022/10/09 09:11:37;;;;;;;9.27;1.83;;;22.00;99.90;;;;;;4068343;29;20200;-92
2022/10/09 09:13:48;;;;;;;4.10;1.35;;;22.10;99.90;;;;;;4052879;29;20181;-90
2022/10/09 09:16:05;;;;;;;6.22;1.90;;;22.40;99.90;;;;;;4065724;29;20184;-92
2022/10/09 09:18:16;;;;;;;10.35;1.65;;;22.50;99.90;;;;;;4068472;29;20207;-90
2022/10/09 09:20:43;;;;;;;6.85;1.58;;;22.00;99.90;;;;;;4068447;29;20271;-91
2022/10/09 09:22:48;;;;;;;3.97;1.50;;;22.50;99.90;;;;;;4068462;29;20701;-92
2022/10/09 09:24:57;;;;;;;7.93;1.70;;;22.60;99.90;;;;;;4052924;29;20173;-92
2022/10/09 09:27:02;;;;;;;8.43;1.60;;;22.40;99.90;;;;;;4068404;29;20183;-91
2022/10/09 09:29:04;;;;;;;4.15;1.50;;;22.00;99.90;;;;;;4052586;29;20725;-91
2022/10/09 09:31:07;;;;;;;7.38;1.58;;;21.90;99.90;;;;;;4052747;29;20812;-94
2022/10/09 09:33:10;;;;;;;6.93;1.65;;;21.80;99.90;;;;;;4052755;29;20184;-92
2022/10/09 09:35:45;;;;;;;4.60;1.67;;;22.30;99.90;;;;;;4068243;29;20685;-92
2022/10/09 09:37:46;;;;;;;5.97;1.17;;;22.30;99.90;;;;;;4067929;29;20179;-91
2022/10/09 09:39:47;;;;;;;7.20;1.92;;;21.30;99.90;;;;;;4052695;29;20177;-93
2022/10/09 09:41:48;;;;;;;4.22;1.90;;;21.00;99.90;;;;;;4083916;29;20228;-93
2022/10/09 09:43:48;;;;;;;5.95;1.50;;;20.60;99.90;;;;;;4068132;29;20338;-92
2022/10/09 09:45:55;;;;;;;8.38;1.60;;;20.00;99.90;;;;;;4083746;29;20168;-91
2022/10/09 09:48:05;;;;;;;8.57;1.50;;;19.50;99.90;;;;;;4052638;29;20188;-91
2022/10/09 09:50:06;;;;;;;6.47;1.55;;;19.30;99.90;;;;;;4052757;29;20204;-93
2022/10/09 09:52:08;;;;;;;6.90;1.58;;;19.00;99.90;;;;;;4052642;29;20170;-91
2022/10/09 09:54:16;;;;;;;7.00;1.30;;;18.60;99.90;;;;;;4052732;29;20177;-91
2022/10/09 09:56:17;;;;;;;3.88;1.23;;;18.50;99.90;;;;;;4052415;29;20180;-90
2022/10/09 09:58:19;;;;;;;5.68;1.30;;;18.40;99.90;;;;;;4069107;29;20219;-90
2022/10/09 10:00:21;;;;;;;7.00;1.48;;;18.30;99.90;;;;;;4075510;28;20180;-92
2022/10/09 10:02:25;;;;;;;7.80;1.83;;;18.30;99.90;;;;;;4084245;28;20240;-92
2022/10/09 10:04:27;;;;;;;3.47;1.50;;;18.10;99.90;;;;;;4073273;28;20228;-90
2022/10/09 10:06:27;;;;;;;8.85;1.63;;;17.80;99.90;;;;;;4095557;23;20211;-91
2022/10/09 10:08:31;;;;;;;5.68;1.63;;;18.00;99.90;;;;;;4070742;29;20569;-91
2022/10/09 10:10:32;;;;;;;6.70;1.48;;;17.80;99.90;;;;;;4086461;29;20612;-89
2022/10/09 10:12:38;;;;;;;6.53;1.73;;;17.70;99.90;;;;;;4087161;29;20188;-92
2022/10/09 10:14:49;;;;;;;7.82;1.40;;;17.50;99.90;;;;;;4086490;29;20797;-91
2022/10/09 10:16:51;;;;;;;4.70;1.52;;;17.40;99.90;;;;;;4070561;29;20195;-90
2022/10/09 10:18:55;;;;;;;7.40;1.58;;;17.40;99.90;;;;;;4070568;29;20219;-90
2022/10/09 10:21:02;;;;;;;8.10;1.75;;;17.50;99.90;;;;;;4070458;29;20188;-91
2022/10/09 10:23:02;;;;;;;4.05;1.50;;;17.30;99.90;;;;;;4070506;29;20247;-91
2022/10/09 10:25:03;;;;;;;6.20;1.90;;;17.40;99.90;;;;;;4086247;29;20190;-89
2022/10/09 10:27:27;;;;;;;9.68;1.80;;;17.70;99.90;;;;;;4070368;29;20271;-91
2022/10/09 10:29:42;;;;;;;9.52;1.52;;;17.90;99.90;;;;;;4086095;29;20187;-91
2022/10/09 10:31:50;;;;;;;8.38;2.30;;;18.20;99.90;;;;;;4070469;29;20263;-92
2022/10/09 10:33:54;;;;;;;11.00;2.00;;;18.40;99.90;;;;;;4086482;29;20262;-92
2022/10/09 10:35:57;;;;;;;10.60;2.50;;;18.20;99.90;;;;;;4070710;29;20176;-91
2022/10/09 10:38:24;;;;;;;9.00;1.65;;;18.10;99.90;;;;;;4070416;29;20286;-92
2022/10/09 10:40:30;;;;;;;11.88;1.83;;;18.20;99.90;;;;;;4069885;29;20208;-90
2022/10/09 10:42:38;;;;;;;5.22;2.03;;;18.00;99.90;;;;;;4085867;29;20187;-91
2022/10/09 10:44:56;;;;;;;8.88;2.10;;;18.10;99.90;;;;;;4086059;29;20182;-90